createdAt,value
2017-06-29T00:02:21.600Z,97254.20
2017-06-29T00:04:48.662Z,97252.11
2017-06-29T00:07:15.735Z,97250.91
2017-06-29T00:09:42.857Z,97257.29
2017-06-29T00:12:09.957Z,97256.81
2017-06-29T00:14:37.023Z,97251.78
2017-06-29T00:17:04.123Z,97249.69
2017-06-29T00:19:31.188Z,97248.31
2017-06-29T00:21:58.253Z,97259.72
2017-06-29T00:24:25.367Z,97258.87
2017-06-29T00:26:52.431Z,97254.44
2017-06-29T00:29:19.498Z,97259.07
2017-06-29T00:31:46.612Z,97251.25
2017-06-29T00:34:13.676Z,97248.34
2017-06-29T00:36:40.747Z,97247.13
2017-06-29T00:39:07.898Z,97243.45
2017-06-29T00:41:34.964Z,97245.38
2017-06-29T00:44:02.025Z,97246.92
2017-06-29T00:46:29.188Z,97242.97
2017-06-29T00:48:56.258Z,97244.19
2017-06-29T00:51:23.328Z,97240.94
2017-06-29T00:53:50.439Z,97239.53
2017-06-29T00:56:17.507Z,97242.70
2017-06-29T00:58:44.583Z,97248.61
2017-06-29T01:01:11.686Z,97248.75
2017-06-29T01:03:38.748Z,97246.66
2017-06-29T01:06:05.831Z,97251.44
2017-06-29T01:08:32.945Z,97250.96
2017-06-29T01:11:00.073Z,97252.81
2017-06-29T01:13:27.225Z,97253.44
2017-06-29T01:15:54.332Z,97245.55
2017-06-29T01:18:21.430Z,97248.75
2017-06-29T01:20:48.508Z,97249.30
2017-06-29T01:23:15.612Z,97249.60
2017-06-29T01:25:42.709Z,97253.07
2017-06-29T01:28:09.815Z,97251.08
2017-06-29T01:30:36.950Z,97244.77
2017-06-29T01:33:04.015Z,97250.25
2017-06-29T01:35:31.168Z,97250.72
2017-06-29T01:37:58.283Z,97251.09
2017-06-29T01:40:25.359Z,97258.23
2017-06-29T01:42:52.429Z,97260.24
2017-06-29T01:45:19.553Z,97258.93
2017-06-29T01:47:46.620Z,97256.42
2017-06-29T01:50:13.758Z,97262.30
2017-06-29T01:52:40.867Z,97256.42
2017-06-29T01:55:07.937Z,97257.82
2017-06-29T01:57:35.010Z,97268.05
2017-06-29T02:00:02.127Z,97261.89
2017-06-29T02:02:29.196Z,97257.31
2017-06-29T02:04:56.271Z,97260.58
2017-06-29T02:07:23.378Z,97266.46
2017-06-29T02:09:50.473Z,97268.25
2017-06-29T02:12:17.549Z,97270.61
2017-06-29T02:14:44.655Z,97273.39
2017-06-29T02:17:11.740Z,97270.14
2017-06-29T02:19:38.815Z,97276.35
2017-06-29T02:22:05.939Z,97273.19
2017-06-29T02:24:33.010Z,97279.07
2017-06-29T02:27:00.083Z,97273.39
2017-06-29T02:29:27.203Z,97278.59
2017-06-29T02:31:54.390Z,97287.92
2017-06-29T02:34:21.461Z,97284.72
2017-06-29T02:36:48.573Z,97282.39
2017-06-29T02:39:15.737Z,97284.66
2017-06-29T02:41:42.888Z,97290.39
2017-06-29T02:44:10.017Z,97289.17
2017-06-29T02:46:37.111Z,97296.80
2017-06-29T02:49:04.192Z,97287.50
2017-06-29T02:51:31.297Z,97292.90
2017-06-29T02:53:58.381Z,97287.37
2017-06-29T02:56:25.460Z,97294.69
2017-06-29T02:58:52.585Z,97292.27
2017-06-29T03:01:19.687Z,97296.22
2017-06-29T03:03:46.753Z,97298.04
2017-06-29T03:06:13.871Z,97297.94
2017-06-29T03:08:40.947Z,97290.07
2017-06-29T03:11:08.011Z,97294.48
2017-06-29T03:13:35.137Z,97297.26
2017-06-29T03:16:02.206Z,97302.16
2017-06-29T03:18:29.281Z,97311.35
2017-06-29T03:20:56.409Z,97306.78
2017-06-29T03:23:23.476Z,97303.87
2017-06-29T03:25:50.546Z,97305.20
2017-06-29T03:28:17.685Z,97312.25
2017-06-29T03:30:44.752Z,97312.05
2017-06-29T03:33:11.827Z,97311.10
2017-06-29T03:35:38.962Z,97312.73
2017-06-29T03:38:06.033Z,97317.70
2017-06-29T03:40:33.107Z,97317.52
2017-06-29T03:43:00.227Z,97314.31
2017-06-29T03:45:27.297Z,97314.48
2017-06-29T03:47:54.374Z,97320.54
2017-06-29T03:50:21.481Z,97323.73
2017-06-29T03:52:48.547Z,97319.99
2017-06-29T03:55:15.620Z,97325.27
2017-06-29T03:57:42.753Z,97322.63
2017-06-29T04:00:09.827Z,97326.36
2017-06-29T04:02:36.905Z,97318.95
2017-06-29T04:05:04.020Z,97322.97
2017-06-29T04:07:31.106Z,97324.38
2017-06-29T04:09:58.179Z,97319.93
2017-06-29T04:12:25.306Z,97324.29
2017-06-29T04:14:52.385Z,97323.55
2017-06-29T04:17:19.458Z,97323.39
2017-06-29T04:19:46.582Z,97325.70
2017-06-29T04:22:13.648Z,97325.41
2017-06-29T04:24:40.718Z,97325.27
2017-06-29T04:27:07.832Z,97333.50
2017-06-29T04:29:34.934Z,97330.02
2017-06-29T04:32:02.006Z,97331.39
2017-06-29T04:34:29.125Z,97327.53
2017-06-29T04:36:56.202Z,97330.66
2017-06-29T04:39:23.315Z,97333.98
2017-06-29T04:41:50.417Z,97339.84
2017-06-29T04:44:17.486Z,97342.56
2017-06-29T04:46:44.585Z,97341.63
2017-06-29T04:49:11.707Z,97341.22
2017-06-29T04:51:38.779Z,97342.75
2017-06-29T04:54:05.846Z,97343.81
2017-06-29T04:56:32.972Z,97344.20
2017-06-29T04:59:00.071Z,97348.33
2017-06-29T05:01:27.140Z,97356.78
2017-06-29T05:03:54.266Z,97354.13
2017-06-29T05:06:21.368Z,97357.38
2017-06-29T05:08:48.437Z,97358.44
2017-06-29T05:11:15.561Z,97363.27
2017-06-29T05:13:42.636Z,97356.55
2017-06-29T05:16:09.718Z,97360.28
2017-06-29T05:18:36.834Z,97361.13
2017-06-29T05:21:03.940Z,97364.84
2017-06-29T05:23:31.009Z,97371.97
2017-06-29T05:25:58.115Z,97373.28
2017-06-29T05:28:25.183Z,97369.54
2017-06-29T05:30:52.256Z,97379.54
2017-06-29T05:33:19.488Z,97381.60
2017-06-29T05:35:46.554Z,97380.34
2017-06-29T05:38:13.638Z,97386.72
2017-06-29T05:40:40.765Z,97385.77
2017-06-29T05:43:07.834Z,97386.53
2017-06-29T05:45:34.939Z,97382.24
2017-06-29T05:48:02.064Z,97385.98
2017-06-29T05:50:29.141Z,97387.02
2017-06-29T05:52:56.214Z,97388.13
2017-06-29T05:55:23.334Z,97384.30
2017-06-29T05:57:50.513Z,97386.37
2017-06-29T06:00:17.581Z,97394.06
2017-06-29T06:02:44.713Z,97396.01
2017-06-29T06:05:11.790Z,97391.86
2017-06-29T06:07:38.862Z,97395.23
2017-06-29T06:10:05.994Z,97393.64
2017-06-29T06:12:33.076Z,97396.76
2017-06-29T06:15:00.242Z,97399.53
2017-06-29T06:17:27.358Z,97406.66
2017-06-29T06:19:54.423Z,97402.17
2017-06-29T06:22:21.488Z,97406.03
2017-06-29T06:24:48.725Z,97400.23
2017-06-29T06:27:15.793Z,97401.33
2017-06-29T06:29:42.865Z,97403.61
2017-06-29T06:32:09.989Z,97406.03
2017-06-29T06:34:37.056Z,97408.63
2017-06-29T06:37:04.124Z,97414.78
2017-06-29T06:39:31.234Z,97411.20
2017-06-29T06:41:58.311Z,97411.05
2017-06-29T06:44:25.378Z,97414.36
2017-06-29T06:46:52.510Z,97414.52
2017-06-29T06:49:19.580Z,97413.73
2017-06-29T06:51:46.650Z,97413.83
2017-06-29T06:54:13.760Z,97416.77
2017-06-29T06:56:40.833Z,97421.13
2017-06-29T06:59:07.903Z,97425.98
2017-06-29T07:01:35.007Z,97422.80
2017-06-29T07:04:02.080Z,97430.34
2017-06-29T07:06:29.149Z,97437.06
2017-06-29T07:08:56.250Z,97436.36
2017-06-29T07:11:23.319Z,97432.64
2017-06-29T07:13:50.401Z,97435.80
2017-06-29T07:16:17.517Z,97436.08
2017-06-29T07:18:44.587Z,97434.70
2017-06-29T07:21:11.664Z,97441.95
2017-06-29T07:23:38.787Z,97441.75
2017-06-29T07:26:05.855Z,97442.59
2017-06-29T07:28:32.927Z,97446.53
2017-06-29T07:31:00.054Z,97448.55
2017-06-29T07:33:27.116Z,97450.34
2017-06-29T07:35:54.185Z,97455.32
2017-06-29T07:38:21.308Z,97450.42
2017-06-29T07:40:48.497Z,97449.53
2017-06-29T07:43:15.584Z,97456.84
2017-06-29T07:45:42.719Z,97463.21
2017-06-29T07:48:09.806Z,97458.92
2017-06-29T07:50:36.882Z,97463.06
2017-06-29T07:53:04.013Z,97460.66
2017-06-29T07:55:31.081Z,97467.38
2017-06-29T07:57:58.153Z,97462.68
2017-06-29T08:00:25.260Z,97461.70
2017-06-29T08:02:52.338Z,97466.11
2017-06-29T08:05:19.401Z,97461.56
2017-06-29T08:07:46.508Z,97462.58
2017-06-29T08:10:13.591Z,97459.41
2017-06-29T08:12:40.667Z,97462.27
2017-06-29T08:15:07.782Z,97461.34
2017-06-29T08:17:34.848Z,97471.28
2017-06-29T08:20:01.950Z,97469.86
2017-06-29T08:22:29.050Z,97466.92
2017-06-29T08:24:56.119Z,97465.00
2017-06-29T08:27:23.187Z,97465.92
2017-06-29T08:29:50.313Z,97463.39
2017-06-29T08:32:17.389Z,97465.89
2017-06-29T08:34:44.466Z,97467.64
2017-06-29T08:37:11.582Z,97468.85
2017-06-29T08:39:38.663Z,97468.16
2017-06-29T08:42:05.747Z,97474.00
2017-06-29T08:44:32.850Z,97470.19
2017-06-29T08:46:59.955Z,97477.86
2017-06-29T08:49:27.025Z,97470.17
2017-06-29T08:51:54.138Z,97471.08
2017-06-29T08:54:21.226Z,97477.87
2017-06-29T08:56:48.299Z,97471.45
2017-06-29T08:59:15.426Z,97467.08
2017-06-29T09:01:42.559Z,97475.19
2017-06-29T09:04:09.621Z,97475.17
2017-06-29T09:06:36.758Z,97469.14
2017-06-29T09:09:03.829Z,97474.20
2017-06-29T09:11:30.900Z,97471.16
2017-06-29T09:13:58.034Z,97468.25
2017-06-29T09:16:25.136Z,97469.51
2017-06-29T09:18:52.213Z,97468.73
2017-06-29T09:21:19.329Z,97458.87
2017-06-29T09:23:46.405Z,97466.95
2017-06-29T09:26:13.499Z,97465.78
2017-06-29T09:28:40.616Z,97468.75
2017-06-29T09:31:07.690Z,97466.91
2017-06-29T09:33:34.762Z,97470.67
2017-06-29T09:36:01.886Z,97470.36
2017-06-29T09:38:28.949Z,97462.72
2017-06-29T09:40:56.017Z,97475.10
2017-06-29T09:43:23.124Z,97465.56
2017-06-29T09:45:50.201Z,97472.69
2017-06-29T09:48:17.278Z,97476.02
2017-06-29T09:50:44.406Z,97482.19
2017-06-29T09:53:11.478Z,97478.30
2017-06-29T09:55:38.568Z,97480.65
2017-06-29T09:58:05.691Z,97481.36
2017-06-29T10:00:32.759Z,97480.13
2017-06-29T10:02:59.851Z,97483.08
2017-06-29T10:05:26.974Z,97484.27
2017-06-29T10:07:54.046Z,97476.30
2017-06-29T10:10:21.143Z,97486.28
2017-06-29T10:12:48.259Z,97483.70
2017-06-29T10:15:15.360Z,97486.92
2017-06-29T10:17:42.429Z,97485.04
2017-06-29T10:20:09.533Z,97484.33
2017-06-29T10:22:36.607Z,97479.34
2017-06-29T10:25:03.678Z,97484.41
2017-06-29T10:27:30.802Z,97480.27
2017-06-29T10:29:57.877Z,97481.03
2017-06-29T10:32:24.949Z,97489.20
2017-06-29T10:34:52.050Z,97486.94
2017-06-29T10:37:19.134Z,97482.20
2017-06-29T10:39:46.201Z,97486.52
2017-06-29T10:42:13.311Z,97491.91
2017-06-29T10:44:40.390Z,97487.91
2017-06-29T10:47:07.463Z,97495.23
2017-06-29T10:49:34.589Z,97489.70
2017-06-29T10:52:01.668Z,97488.23
2017-06-29T10:54:28.731Z,97496.03
2017-06-29T10:56:55.861Z,97492.11
2017-06-29T10:59:22.930Z,97496.07
2017-06-29T11:01:50.004Z,97492.29
2017-06-29T11:04:17.114Z,97491.92
2017-06-29T11:06:44.204Z,97495.03
2017-06-29T11:09:11.284Z,97492.41
2017-06-29T11:11:38.412Z,97491.03
2017-06-29T11:14:05.507Z,97485.41
2017-06-29T11:16:32.584Z,97481.82
2017-06-29T11:18:59.714Z,97483.44
2017-06-29T11:21:26.817Z,97480.97
2017-06-29T11:23:53.897Z,97482.70
2017-06-29T11:26:21.027Z,97482.30
2017-06-29T11:28:48.121Z,97480.92
2017-06-29T11:31:15.197Z,97481.70
2017-06-29T11:33:42.312Z,97480.47
2017-06-29T11:36:09.408Z,97489.77
2017-06-29T11:38:36.477Z,97490.09
2017-06-29T11:41:03.601Z,97487.77
2017-06-29T11:43:30.689Z,97484.57
2017-06-29T11:45:57.765Z,97483.80
2017-06-29T11:48:24.951Z,97492.20
2017-06-29T11:50:52.050Z,97500.21
2017-06-29T11:53:19.177Z,97491.90
2017-06-29T11:55:46.323Z,97492.88
2017-06-29T11:58:13.397Z,97493.92
2017-06-29T12:00:40.479Z,97487.84
2017-06-29T12:03:07.611Z,97491.84
2017-06-29T12:05:34.676Z,97487.42
2017-06-29T12:08:01.765Z,97492.95
2017-06-29T12:10:28.892Z,97493.11
2017-06-29T12:12:55.962Z,97488.86
2017-06-29T12:15:23.028Z,97480.75
2017-06-29T12:17:50.154Z,97483.06
2017-06-29T12:20:17.225Z,97481.88
2017-06-29T12:22:44.296Z,97484.45
2017-06-29T12:25:11.421Z,97476.36
2017-06-29T12:27:38.498Z,97470.41
2017-06-29T12:30:05.566Z,97477.11
2017-06-29T12:32:32.689Z,97472.83
2017-06-29T12:34:59.768Z,97473.37
2017-06-29T12:37:26.841Z,97474.95
2017-06-29T12:39:54.000Z,97466.52
2017-06-29T12:42:21.090Z,97463.67
2017-06-29T12:44:48.163Z,97465.62
2017-06-29T12:47:15.285Z,97460.42
2017-06-29T12:49:42.364Z,97467.22
2017-06-29T12:52:09.451Z,97463.33
2017-06-29T12:54:36.565Z,97453.58
2017-06-29T12:57:03.640Z,97449.90
2017-06-29T12:59:30.737Z,97459.05
2017-06-29T13:01:57.882Z,97447.95
2017-06-29T13:04:24.994Z,97444.84
2017-06-29T13:06:52.082Z,97446.16
2017-06-29T13:09:19.213Z,97438.95
2017-06-29T13:11:46.291Z,97444.70
2017-06-29T13:14:13.369Z,97449.28
2017-06-29T13:16:40.486Z,97441.38
2017-06-29T13:19:07.588Z,97440.81
2017-06-29T13:21:34.652Z,97442.84
2017-06-29T13:24:01.771Z,97447.53
2017-06-29T13:26:28.843Z,97455.16
2017-06-29T13:28:55.913Z,97462.51
2017-06-29T13:31:23.042Z,97464.24
2017-06-29T13:33:50.118Z,97468.64
2017-06-29T13:36:17.191Z,97463.03
2017-06-29T13:38:44.328Z,97476.33
2017-06-29T13:41:11.392Z,97478.05
2017-06-29T13:43:38.463Z,97480.23
2017-06-29T13:46:05.574Z,97480.57
2017-06-29T13:48:32.657Z,97483.75
2017-06-29T13:50:59.731Z,97479.89
2017-06-29T13:53:26.868Z,97467.93
2017-06-29T13:55:53.938Z,97465.64
2017-06-29T13:58:21.004Z,97464.03
2017-06-29T14:00:48.126Z,97455.63
2017-06-29T14:03:15.236Z,97459.34
2017-06-29T14:05:42.413Z,97459.55
2017-06-29T14:08:09.537Z,97460.38
2017-06-29T14:10:36.621Z,97461.78
2017-06-29T14:13:03.728Z,97463.19
2017-06-29T14:15:30.873Z,97454.24
2017-06-29T14:17:57.958Z,97447.04
2017-06-29T14:20:25.022Z,97445.16
2017-06-29T14:22:52.164Z,97446.56
2017-06-29T14:25:19.228Z,97445.11
2017-06-29T14:27:46.306Z,97441.02
2017-06-29T14:30:13.426Z,97448.49
2017-06-29T14:32:40.502Z,97451.19
2017-06-29T14:35:07.578Z,97448.20
2017-06-29T14:37:34.698Z,97446.36
2017-06-29T14:40:01.778Z,97447.97
2017-06-29T14:42:28.851Z,97450.52
2017-06-29T14:44:55.979Z,97447.56
2017-06-29T14:47:23.043Z,97451.92
2017-06-29T14:49:50.173Z,97449.03
2017-06-29T14:52:17.290Z,97446.08
2017-06-29T14:54:44.398Z,97446.13
2017-06-29T14:57:11.480Z,97439.73
2017-06-29T14:59:38.593Z,97438.36
2017-06-29T15:02:05.668Z,97442.24
2017-06-29T15:04:32.745Z,97441.77
2017-06-29T15:06:59.853Z,97440.30
2017-06-29T15:09:26.922Z,97443.15
2017-06-29T15:11:53.992Z,97448.91
2017-06-29T15:14:21.109Z,97443.72
2017-06-29T15:16:48.188Z,97452.92
2017-06-29T15:19:15.261Z,97449.25
2017-06-29T15:21:42.381Z,97457.92
2017-06-29T15:24:09.452Z,97448.72
2017-06-29T15:26:36.524Z,97452.40
2017-06-29T15:29:03.653Z,97461.80
2017-06-29T15:31:30.723Z,97472.95
2017-06-29T15:33:57.795Z,97473.23
2017-06-29T15:36:25.027Z,97469.48
2017-06-29T15:38:52.094Z,97492.84
2017-06-29T15:41:19.166Z,97474.20
2017-06-29T15:43:46.288Z,97473.84
2017-06-29T15:46:13.365Z,97479.73
2017-06-29T15:48:40.438Z,97489.58
2017-06-29T15:51:07.539Z,97489.64
2017-06-29T15:53:34.616Z,97535.02
2017-06-29T15:56:01.725Z,97526.41
2017-06-29T15:58:28.797Z,97572.19
2017-06-29T16:00:55.872Z,97541.51
2017-06-29T16:03:22.978Z,97545.84
2017-06-29T16:05:50.054Z,97581.23
2017-06-29T16:08:17.162Z,97581.17
2017-06-29T16:10:44.224Z,97580.64
2017-06-29T16:13:12.131Z,97581.42
2017-06-29T16:15:39.237Z,97572.98
2017-06-29T16:18:06.315Z,97623.16
2017-06-29T16:20:33.426Z,97578.16
2017-06-29T16:23:00.499Z,97587.70
2017-06-29T16:25:27.580Z,97589.55
2017-06-29T16:27:54.686Z,97591.45
2017-06-29T16:30:21.869Z,97579.25
2017-06-29T16:32:49.025Z,97576.48
2017-06-29T16:35:16.098Z,97588.82
2017-06-29T16:37:43.261Z,97569.84
2017-06-29T16:40:10.365Z,97578.66
2017-06-29T16:42:37.442Z,97586.13
2017-06-29T16:45:04.556Z,97583.58
2017-06-29T16:47:31.625Z,97580.33
2017-06-29T16:49:58.706Z,97588.34
2017-06-29T16:52:25.810Z,97593.27
2017-06-29T16:54:52.875Z,97610.25
2017-06-29T16:57:19.981Z,97599.25
2017-06-29T16:59:47.050Z,97614.31
2017-06-29T17:02:14.123Z,97612.47
2017-06-29T17:04:41.248Z,97622.69
2017-06-29T17:07:08.311Z,97618.31
2017-06-29T17:09:35.423Z,97623.36
2017-06-29T17:12:02.497Z,97624.92
2017-06-29T17:14:29.568Z,97633.98
2017-06-29T17:16:56.665Z,97641.58
2017-06-29T17:19:23.737Z,97645.47
2017-06-29T17:21:50.865Z,97651.14
2017-06-29T17:24:17.943Z,97655.28
2017-06-29T17:26:45.016Z,97668.25
2017-06-29T17:29:12.122Z,97681.45
2017-06-29T17:31:39.194Z,97682.21
2017-06-29T17:34:06.316Z,97697.99
2017-06-29T17:36:33.394Z,97694.75
2017-06-29T17:39:00.465Z,97702.97
2017-06-29T17:41:27.570Z,97709.41
2017-06-29T17:43:54.644Z,97709.41
2017-06-29T17:46:21.761Z,97703.45
2017-06-29T17:48:48.830Z,97709.04
2017-06-29T17:51:15.898Z,97708.29
2017-06-29T17:53:43.000Z,97722.93
2017-06-29T17:56:10.070Z,97720.13
2017-06-29T17:58:37.193Z,97726.00
2017-06-29T18:01:04.264Z,97726.42
2017-06-29T18:03:31.349Z,97721.53
2017-06-29T18:05:58.445Z,97719.80
2017-06-29T18:08:25.516Z,97727.83
2017-06-29T18:10:52.638Z,97718.30
2017-06-29T18:13:19.713Z,97719.42
2017-06-29T18:15:46.780Z,97727.83
2017-06-29T18:18:13.881Z,97727.27
2017-06-29T18:20:40.953Z,97723.73
2017-06-29T18:23:08.065Z,97723.93
2017-06-29T18:25:35.127Z,97735.48
2017-06-29T18:28:02.199Z,97735.12
2017-06-29T18:30:29.304Z,97741.46
2017-06-29T18:32:56.384Z,97751.23
2017-06-29T18:35:23.508Z,97739.73
2017-06-29T18:37:50.584Z,97742.27
2017-06-29T18:40:17.656Z,97739.88
2017-06-29T18:42:44.782Z,97751.30
2017-06-29T18:45:11.853Z,97746.45
2017-06-29T18:47:38.949Z,97755.89
2017-06-29T18:50:06.022Z,97755.32
2017-06-29T18:52:33.094Z,97763.59
2017-06-29T18:55:00.201Z,97761.66
2017-06-29T18:57:27.277Z,97763.07
2017-06-29T18:59:54.406Z,97769.64
2017-06-29T19:02:21.481Z,97773.30
2017-06-29T19:04:48.550Z,97773.51
2017-06-29T19:07:15.657Z,97778.84
2017-06-29T19:09:42.738Z,97782.79
2017-06-29T19:12:09.845Z,97787.11
2017-06-29T19:14:36.926Z,97796.84
2017-06-29T19:17:03.992Z,97793.36
2017-06-29T19:19:31.094Z,97793.02
2017-06-29T19:21:58.161Z,97794.29
2017-06-29T19:24:25.289Z,97799.55
2017-06-29T19:26:52.360Z,97801.05
2017-06-29T19:29:19.433Z,97794.89
2017-06-29T19:31:46.537Z,97796.63
2017-06-29T19:34:13.597Z,97795.03
2017-06-29T19:36:40.715Z,97798.08
2017-06-29T19:39:07.791Z,97802.17
2017-06-29T19:41:34.867Z,97806.72
2017-06-29T19:44:01.962Z,97812.35
2017-06-29T19:46:29.029Z,97802.31
2017-06-29T19:48:56.149Z,97804.98
2017-06-29T19:51:23.212Z,97810.30
2017-06-29T19:53:50.275Z,97811.05
2017-06-29T19:56:17.518Z,97814.77
2017-06-29T19:58:44.604Z,97809.45
2017-06-29T20:01:11.734Z,97814.58
2017-06-29T20:03:38.813Z,97814.20
2017-06-29T20:06:05.880Z,97818.67
2017-06-29T20:08:33.018Z,97819.23
2017-06-29T20:11:00.073Z,97827.88
2017-06-29T20:13:27.197Z,97829.45
2017-06-29T20:15:54.281Z,97816.47
2017-06-29T20:18:21.346Z,97821.20
2017-06-29T20:20:48.456Z,97822.05
2017-06-29T20:23:15.525Z,97821.16
2017-06-29T20:25:42.629Z,97817.12
2017-06-29T20:28:09.742Z,97811.67
2017-06-29T20:30:36.837Z,97809.05
2017-06-29T20:33:03.995Z,97814.72
2017-06-29T20:35:31.067Z,97818.48
2017-06-29T20:37:58.190Z,97818.95
2017-06-29T20:40:25.262Z,97821.77
2017-06-29T20:42:52.332Z,97825.23
2017-06-29T20:45:19.430Z,97834.63
2017-06-29T20:47:46.533Z,97841.81
2017-06-29T20:50:13.927Z,97848.44
2017-06-29T20:52:41.009Z,97862.77
2017-06-29T20:55:08.330Z,97866.42
2017-06-29T20:57:35.495Z,97865.77
2017-06-29T21:00:02.580Z,97869.52
2017-06-29T21:02:29.705Z,97868.39
2017-06-29T21:04:56.783Z,97878.25
2017-06-29T21:07:23.853Z,97888.41
2017-06-29T21:09:50.959Z,97889.31
2017-06-29T21:12:18.031Z,97894.27
2017-06-29T21:14:45.152Z,97896.95
2017-06-29T21:17:12.226Z,97906.05
2017-06-29T21:19:39.298Z,97903.02
2017-06-29T21:22:06.405Z,97910.98
2017-06-29T21:24:33.474Z,97916.72
2017-06-29T21:27:00.586Z,97912.60
2017-06-29T21:29:27.657Z,97912.60
2017-06-29T21:31:54.722Z,97913.31
2017-06-29T21:34:21.824Z,97920.91
2017-06-29T21:36:48.899Z,97918.28
2017-06-29T21:39:15.973Z,97921.67
2017-06-29T21:41:43.076Z,97916.08
2017-06-29T21:44:10.150Z,97920.31
2017-06-29T21:46:37.230Z,97926.03
2017-06-29T21:49:04.340Z,97928.66
2017-06-29T21:51:31.410Z,97934.90
2017-06-29T21:53:58.472Z,97930.84
2017-06-29T21:56:25.592Z,97942.85
2017-06-29T21:58:52.659Z,97947.45
2017-06-29T22:01:19.726Z,97947.64
2017-06-29T22:03:46.847Z,97946.56
2017-06-29T22:06:13.910Z,97952.30
2017-06-29T22:08:40.986Z,97948.01
2017-06-29T22:11:08.095Z,97948.46
2017-06-29T22:13:35.155Z,97953.66
2017-06-29T22:16:02.219Z,97951.03
2017-06-29T22:18:29.333Z,97949.78
2017-06-29T22:20:56.405Z,97955.50
2017-06-29T22:23:23.471Z,97949.94
2017-06-29T22:25:50.598Z,97955.38
2017-06-29T22:28:17.669Z,97960.76
2017-06-29T22:30:44.736Z,97960.42
2017-06-29T22:33:11.857Z,97962.34
2017-06-29T22:35:38.928Z,97965.86
2017-06-29T22:38:06.003Z,97960.64
2017-06-29T22:40:33.107Z,97964.31
2017-06-29T22:43:00.177Z,97965.63
2017-06-29T22:45:27.246Z,97964.09
2017-06-29T22:47:54.348Z,97961.12
2017-06-29T22:50:21.446Z,97965.30
2017-06-29T22:52:48.519Z,97969.31
2017-06-29T22:55:15.641Z,97966.87
2017-06-29T22:57:42.714Z,97975.34
2017-06-29T23:00:09.787Z,97976.58
2017-06-29T23:02:36.894Z,97970.73
2017-06-29T23:05:03.972Z,97973.91
2017-06-29T23:07:31.043Z,97976.16
2017-06-29T23:09:58.170Z,97980.78
2017-06-29T23:12:25.245Z,97977.95
2017-06-29T23:14:52.324Z,97974.02
2017-06-29T23:17:19.430Z,97974.55
2017-06-29T23:19:46.514Z,97975.63
2017-06-29T23:22:13.587Z,97982.27
2017-06-29T23:24:40.701Z,97983.81
2017-06-29T23:27:07.769Z,97974.42
2017-06-29T23:29:34.849Z,97987.61
2017-06-29T23:32:01.958Z,97985.03
2017-06-29T23:34:29.026Z,97987.66
2017-06-29T23:36:56.092Z,97990.09
2017-06-29T23:39:23.197Z,97989.45
2017-06-29T23:41:50.269Z,97984.04
2017-06-29T23:44:17.336Z,97984.33
2017-06-29T23:46:44.439Z,97974.97
2017-06-29T23:49:11.513Z,97978.23
2017-06-29T23:51:38.586Z,97979.31
2017-06-29T23:54:05.700Z,97975.66
2017-06-29T23:56:32.780Z,97978.58
2017-06-29T23:58:59.853Z,97972.86
